Bom Despacho, Brazil
Current Conditions -  °F | °C
As of 2:00 PM on Friday 21 Nov 2014 (Local Time) from SBPR Reporting Station
Few Clouds Few Clouds  
Wind Chill: 88°   Ceiling: Unl
Heat Index: 88°   Visibility: 6mi
Dew Point: 55°   Wind: 3mph
Humidity: 33%   Direction: 80°E
Pressure: 30.03"   Gusts: NA
Location:  19.73°S, 45.26°W
Report Text: SBPR 211600Z 08003KT 9999 FEW030 31/13 Q1017
Loading
Personal Weather Stations






























Interactive Weather Map New forecast layout! Learn more

10-Day Weather Forecast

Advertisements
Track Severe Weather on mobile